sensor_id;sensor_type;location;lat;lon;timestamp;P1;P2;P0
40371;PMS5003;28564;53.346;-6.554;2023-09-08T00:00:58;31;31;
40371;PMS5003;28564;53.346;-6.554;2023-09-08T00:03:26;32;29;
40371;PMS5003;28564;53.346;-6.554;2023-09-08T00:05:53;35;31;
40371;PMS5003;28564;53.346;-6.554;2023-09-08T00:08:21;35;32;
40371;PMS5003;28564;53.346;-6.554;2023-09-08T00:10:48;41;37;
40371;PMS5003;28564;53.346;-6.554;2023-09-08T00:13:16;31;28;
40371;PMS5003;28564;53.346;-6.554;2023-09-08T00:15:43;37;34;
40371;PMS5003;28564;53.346;-6.554;2023-09-08T00:18:11;37;36;
40371;PMS5003;28564;53.346;-6.554;2023-09-08T00:20:38;39;38;
40371;PMS5003;28564;53.346;-6.554;2023-09-08T00:23:05;41;39;
40371;PMS5003;28564;53.346;-6.554;2023-09-08T00:25:32;37;36;
40371;PMS5003;28564;53.346;-6.554;2023-09-08T00:28:00;42;40;
40371;PMS5003;28564;53.346;-6.554;2023-09-08T00:30:27;33;33;
40371;PMS5003;28564;53.346;-6.554;2023-09-08T00:32:54;40;40;
40371;PMS5003;28564;53.346;-6.554;2023-09-08T00:35:21;39;32;
40371;PMS5003;28564;53.346;-6.554;2023-09-08T00:37:48;28;28;
40371;PMS5003;28564;53.346;-6.554;2023-09-08T00:40:15;36;34;
40371;PMS5003;28564;53.346;-6.554;2023-09-08T00:42:43;36;33;
40371;PMS5003;28564;53.346;-6.554;2023-09-08T00:45:11;28;26;
40371;PMS5003;28564;53.346;-6.554;2023-09-08T00:47:38;33;30;
40371;PMS5003;28564;53.346;-6.554;2023-09-08T00:50:06;41;36;
40371;PMS5003;28564;53.346;-6.554;2023-09-08T00:52:34;35;27;
40371;PMS5003;28564;53.346;-6.554;2023-09-08T00:55:01;31;29;
40371;PMS5003;28564;53.346;-6.554;2023-09-08T00:57:28;33;29;
40371;PMS5003;28564;53.346;-6.554;2023-09-08T00:59:55;32;32;
40371;PMS5003;28564;53.346;-6.554;2023-09-08T01:02:23;24;21;
40371;PMS5003;28564;53.346;-6.554;2023-09-08T01:04:50;24;24;
40371;PMS5003;28564;53.346;-6.554;2023-09-08T01:07:17;22;20;
40371;PMS5003;28564;53.346;-6.554;2023-09-08T01:09:46;21;21;
40371;PMS5003;28564;53.346;-6.554;2023-09-08T01:12:15;24;22;
40371;PMS5003;28564;53.346;-6.554;2023-09-08T01:14:42;21;20;
40371;PMS5003;28564;53.346;-6.554;2023-09-08T01:17:10;23;22;
40371;PMS5003;28564;53.346;-6.554;2023-09-08T01:19:37;31;28;
40371;PMS5003;28564;53.346;-6.554;2023-09-08T01:22:18;31;26;
40371;PMS5003;28564;53.346;-6.554;2023-09-08T01:25:01;25;23;
40371;PMS5003;28564;53.346;-6.554;2023-09-08T01:27:36;22;21;
40371;PMS5003;28564;53.346;-6.554;2023-09-08T01:30:05;29;26;
40371;PMS5003;28564;53.346;-6.554;2023-09-08T01:32:34;30;28;
40371;PMS5003;28564;53.346;-6.554;2023-09-08T01:35:02;28;28;
40371;PMS5003;28564;53.346;-6.554;2023-09-08T01:37:29;22;22;
40371;PMS5003;28564;53.346;-6.554;2023-09-08T01:39:57;22;20;
40371;PMS5003;28564;53.346;-6.554;2023-09-08T01:42:24;22;18;
40371;PMS5003;28564;53.346;-6.554;2023-09-08T01:44:51;22;21;
40371;PMS5003;28564;53.346;-6.554;2023-09-08T01:47:19;20;18;
40371;PMS5003;28564;53.346;-6.554;2023-09-08T01:49:46;23;18;
40371;PMS5003;28564;53.346;-6.554;2023-09-08T01:52:13;22;21;
40371;PMS5003;28564;53.346;-6.554;2023-09-08T01:54:40;27;20;
40371;PMS5003;28564;53.346;-6.554;2023-09-08T01:57:07;26;22;
40371;PMS5003;28564;53.346;-6.554;2023-09-08T01:59:34;26;24;
40371;PMS5003;28564;53.346;-6.554;2023-09-08T02:02:02;24;23;
40371;PMS5003;28564;53.346;-6.554;2023-09-08T02:04:29;21;21;
40371;PMS5003;28564;53.346;-6.554;2023-09-08T02:06:57;31;30;
40371;PMS5003;28564;53.346;-6.554;2023-09-08T02:09:29;39;34;
40371;PMS5003;28564;53.346;-6.554;2023-09-08T02:11:57;42;37;
40371;PMS5003;28564;53.346;-6.554;2023-09-08T02:14:24;38;34;
40371;PMS5003;28564;53.346;-6.554;2023-09-08T02:16:52;35;26;
40371;PMS5003;28564;53.346;-6.554;2023-09-08T02:19:19;22;21;
40371;PMS5003;28564;53.346;-6.554;2023-09-08T02:21:47;29;26;
40371;PMS5003;28564;53.346;-6.554;2023-09-08T02:24:14;27;24;
40371;PMS5003;28564;53.346;-6.554;2023-09-08T02:26:41;40;34;
40371;PMS5003;28564;53.346;-6.554;2023-09-08T02:29:09;40;38;
40371;PMS5003;28564;53.346;-6.554;2023-09-08T02:31:36;35;32;
40371;PMS5003;28564;53.346;-6.554;2023-09-08T02:34:04;30;27;
40371;PMS5003;28564;53.346;-6.554;2023-09-08T02:36:31;28;27;
40371;PMS5003;28564;53.346;-6.554;2023-09-08T02:38:59;34;32;
40371;PMS5003;28564;53.346;-6.554;2023-09-08T02:41:26;41;40;
40371;PMS5003;28564;53.346;-6.554;2023-09-08T02:43:53;34;30;
40371;PMS5003;28564;53.346;-6.554;2023-09-08T02:46:21;35;27;
40371;PMS5003;28564;53.346;-6.554;2023-09-08T02:48:48;23;22;
40371;PMS5003;28564;53.346;-6.554;2023-09-08T02:51:16;26;24;
40371;PMS5003;28564;53.346;-6.554;2023-09-08T02:53:43;26;24;
40371;PMS5003;28564;53.346;-6.554;2023-09-08T02:56:10;26;23;
40371;PMS5003;28564;53.346;-6.554;2023-09-08T02:58:37;28;24;
40371;PMS5003;28564;53.346;-6.554;2023-09-08T03:01:13;36;32;
40371;PMS5003;28564;53.346;-6.554;2023-09-08T03:03:41;32;30;
40371;PMS5003;28564;53.346;-6.554;2023-09-08T03:06:09;30;27;
40371;PMS5003;28564;53.346;-6.554;2023-09-08T03:08:36;28;26;
40371;PMS5003;28564;53.346;-6.554;2023-09-08T03:11:04;23;21;
40371;PMS5003;28564;53.346;-6.554;2023-09-08T03:13:31;23;23;
40371;PMS5003;28564;53.346;-6.554;2023-09-08T03:16:01;18;17;
40371;PMS5003;28564;53.346;-6.554;2023-09-08T03:18:30;18;17;
40371;PMS5003;28564;53.346;-6.554;2023-09-08T03:20:57;24;21;
40371;PMS5003;28564;53.346;-6.554;2023-09-08T03:23:25;19;17;
40371;PMS5003;28564;53.346;-6.554;2023-09-08T03:25:53;26;25;
40371;PMS5003;28564;53.346;-6.554;2023-09-08T03:28:20;21;18;
40371;PMS5003;28564;53.346;-6.554;2023-09-08T03:30:47;16;15;
40371;PMS5003;28564;53.346;-6.554;2023-09-08T03:33:15;16;16;
40371;PMS5003;28564;53.346;-6.554;2023-09-08T03:35:42;27;25;
40371;PMS5003;28564;53.346;-6.554;2023-09-08T03:38:09;29;28;
40371;PMS5003;28564;53.346;-6.554;2023-09-08T03:40:37;20;18;
40371;PMS5003;28564;53.346;-6.554;2023-09-08T03:43:04;15;15;
40371;PMS5003;28564;53.346;-6.554;2023-09-08T03:45:31;20;17;
40371;PMS5003;28564;53.346;-6.554;2023-09-08T03:47:58;24;22;
40371;PMS5003;28564;53.346;-6.554;2023-09-08T03:50:26;19;18;
40371;PMS5003;28564;53.346;-6.554;2023-09-08T03:52:53;22;20;
40371;PMS5003;28564;53.346;-6.554;2023-09-08T03:55:20;20;20;
40371;PMS5003;28564;53.346;-6.554;2023-09-08T03:57:47;23;22;
40371;PMS5003;28564;53.346;-6.554;2023-09-08T04:00:15;21;19;
40371;PMS5003;28564;53.346;-6.554;2023-09-08T04:02:42;19;16;
40371;PMS5003;28564;53.346;-6.554;2023-09-08T04:05:10;14;14;
40371;PMS5003;28564;53.346;-6.554;2023-09-08T04:07:37;19;18;
40371;PMS5003;28564;53.346;-6.554;2023-09-08T04:10:05;20;17;
40371;PMS5003;28564;53.346;-6.554;2023-09-08T04:12:33;18;15;
40371;PMS5003;28564;53.346;-6.554;2023-09-08T04:15:00;27;23;
40371;PMS5003;28564;53.346;-6.554;2023-09-08T04:17:27;26;24;
40371;PMS5003;28564;53.346;-6.554;2023-09-08T04:19:55;26;25;
40371;PMS5003;28564;53.346;-6.554;2023-09-08T04:22:22;24;23;
40371;PMS5003;28564;53.346;-6.554;2023-09-08T04:24:49;21;19;
40371;PMS5003;28564;53.346;-6.554;2023-09-08T04:27:17;17;17;
40371;PMS5003;28564;53.346;-6.554;2023-09-08T04:29:44;17;16;
40371;PMS5003;28564;53.346;-6.554;2023-09-08T04:32:12;20;20;
40371;PMS5003;28564;53.346;-6.554;2023-09-08T04:34:39;16;16;
40371;PMS5003;28564;53.346;-6.554;2023-09-08T04:37:08;15;13;
40371;PMS5003;28564;53.346;-6.554;2023-09-08T04:39:35;21;16;
40371;PMS5003;28564;53.346;-6.554;2023-09-08T04:42:03;16;16;
40371;PMS5003;28564;53.346;-6.554;2023-09-08T04:44:31;11;10;
40371;PMS5003;28564;53.346;-6.554;2023-09-08T04:46:58;10;9;
40371;PMS5003;28564;53.346;-6.554;2023-09-08T04:49:25;7;7;
40371;PMS5003;28564;53.346;-6.554;2023-09-08T04:51:52;12;12;
40371;PMS5003;28564;53.346;-6.554;2023-09-08T04:54:19;11;11;
40371;PMS5003;28564;53.346;-6.554;2023-09-08T04:56:47;15;11;
40371;PMS5003;28564;53.346;-6.554;2023-09-08T04:59:14;13;11;
40371;PMS5003;28564;53.346;-6.554;2023-09-08T05:01:42;18;16;
40371;PMS5003;28564;53.346;-6.554;2023-09-08T05:04:09;18;16;
40371;PMS5003;28564;53.346;-6.554;2023-09-08T05:06:37;16;16;
40371;PMS5003;28564;53.346;-6.554;2023-09-08T05:09:04;17;15;
40371;PMS5003;28564;53.346;-6.554;2023-09-08T05:11:32;16;13;
40371;PMS5003;28564;53.346;-6.554;2023-09-08T05:13:59;17;14;
40371;PMS5003;28564;53.346;-6.554;2023-09-08T05:16:27;20;17;
40371;PMS5003;28564;53.346;-6.554;2023-09-08T05:18:54;18;18;
40371;PMS5003;28564;53.346;-6.554;2023-09-08T05:21:21;15;14;
40371;PMS5003;28564;53.346;-6.554;2023-09-08T05:23:49;21;18;
40371;PMS5003;28564;53.346;-6.554;2023-09-08T05:26:16;17;12;
40371;PMS5003;28564;53.346;-6.554;2023-09-08T05:28:43;17;14;
40371;PMS5003;28564;53.346;-6.554;2023-09-08T05:31:10;14;13;
40371;PMS5003;28564;53.346;-6.554;2023-09-08T05:33:37;22;20;
40371;PMS5003;28564;53.346;-6.554;2023-09-08T05:36:05;27;21;
40371;PMS5003;28564;53.346;-6.554;2023-09-08T05:38:32;18;17;
40371;PMS5003;28564;53.346;-6.554;2023-09-08T05:41:00;18;15;
40371;PMS5003;28564;53.346;-6.554;2023-09-08T05:43:27;17;15;
40371;PMS5003;28564;53.346;-6.554;2023-09-08T05:45:54;18;14;
40371;PMS5003;28564;53.346;-6.554;2023-09-08T05:48:21;21;19;
40371;PMS5003;28564;53.346;-6.554;2023-09-08T05:50:48;14;13;
40371;PMS5003;28564;53.346;-6.554;2023-09-08T05:53:15;15;13;
40371;PMS5003;28564;53.346;-6.554;2023-09-08T05:55:43;20;20;
40371;PMS5003;28564;53.346;-6.554;2023-09-08T05:58:10;16;15;
40371;PMS5003;28564;53.346;-6.554;2023-09-08T06:00:38;13;13;
40371;PMS5003;28564;53.346;-6.554;2023-09-08T06:03:06;17;16;
40371;PMS5003;28564;53.346;-6.554;2023-09-08T06:05:33;20;20;
40371;PMS5003;28564;53.346;-6.554;2023-09-08T06:08:01;17;17;
40371;PMS5003;28564;53.346;-6.554;2023-09-08T06:10:28;21;20;
40371;PMS5003;28564;53.346;-6.554;2023-09-08T06:12:56;22;20;
40371;PMS5003;28564;53.346;-6.554;2023-09-08T06:15:23;21;19;
40371;PMS5003;28564;53.346;-6.554;2023-09-08T06:17:50;19;19;
40371;PMS5003;28564;53.346;-6.554;2023-09-08T06:20:17;16;15;
40371;PMS5003;28564;53.346;-6.554;2023-09-08T06:22:45;12;12;
40371;PMS5003;28564;53.346;-6.554;2023-09-08T06:25:12;15;13;
40371;PMS5003;28564;53.346;-6.554;2023-09-08T06:27:40;20;15;
40371;PMS5003;28564;53.346;-6.554;2023-09-08T06:30:08;14;13;
40371;PMS5003;28564;53.346;-6.554;2023-09-08T06:32:36;10;10;
40371;PMS5003;28564;53.346;-6.554;2023-09-08T06:35:04;15;13;
40371;PMS5003;28564;53.346;-6.554;2023-09-08T06:37:34;30;28;
40371;PMS5003;28564;53.346;-6.554;2023-09-08T06:40:02;20;20;
40371;PMS5003;28564;53.346;-6.554;2023-09-08T06:42:30;20;20;
40371;PMS5003;28564;53.346;-6.554;2023-09-08T06:44:58;25;23;
40371;PMS5003;28564;53.346;-6.554;2023-09-08T06:47:26;29;27;
40371;PMS5003;28564;53.346;-6.554;2023-09-08T06:49:54;37;36;
40371;PMS5003;28564;53.346;-6.554;2023-09-08T06:52:21;29;26;
40371;PMS5003;28564;53.346;-6.554;2023-09-08T06:54:48;25;22;
40371;PMS5003;28564;53.346;-6.554;2023-09-08T06:57:17;26;24;
40371;PMS5003;28564;53.346;-6.554;2023-09-08T06:59:45;19;18;
40371;PMS5003;28564;53.346;-6.554;2023-09-08T07:02:12;19;19;
40371;PMS5003;28564;53.346;-6.554;2023-09-08T07:04:39;16;16;
40371;PMS5003;28564;53.346;-6.554;2023-09-08T07:07:07;18;18;
40371;PMS5003;28564;53.346;-6.554;2023-09-08T07:09:34;16;14;
40371;PMS5003;28564;53.346;-6.554;2023-09-08T07:12:02;22;22;
40371;PMS5003;28564;53.346;-6.554;2023-09-08T07:14:34;33;31;
40371;PMS5003;28564;53.346;-6.554;2023-09-08T07:17:01;27;27;
40371;PMS5003;28564;53.346;-6.554;2023-09-08T07:19:28;21;18;
40371;PMS5003;28564;53.346;-6.554;2023-09-08T07:21:55;15;15;
40371;PMS5003;28564;53.346;-6.554;2023-09-08T07:24:35;21;21;
40371;PMS5003;28564;53.346;-6.554;2023-09-08T07:27:02;30;29;
40371;PMS5003;28564;53.346;-6.554;2023-09-08T07:29:34;26;21;
40371;PMS5003;28564;53.346;-6.554;2023-09-08T07:32:01;27;25;
40371;PMS5003;28564;53.346;-6.554;2023-09-08T07:34:29;31;28;
40371;PMS5003;28564;53.346;-6.554;2023-09-08T07:36:56;31;28;
40371;PMS5003;28564;53.346;-6.554;2023-09-08T07:39:23;27;25;
40371;PMS5003;28564;53.346;-6.554;2023-09-08T07:41:51;30;29;
40371;PMS5003;28564;53.346;-6.554;2023-09-08T07:44:18;19;17;
40371;PMS5003;28564;53.346;-6.554;2023-09-08T07:46:45;17;17;
40371;PMS5003;28564;53.346;-6.554;2023-09-08T07:49:12;14;13;
40371;PMS5003;28564;53.346;-6.554;2023-09-08T07:51:39;13;12;
40371;PMS5003;28564;53.346;-6.554;2023-09-08T07:54:06;15;14;
40371;PMS5003;28564;53.346;-6.554;2023-09-08T07:56:33;17;13;
40371;PMS5003;28564;53.346;-6.554;2023-09-08T07:59:01;18;17;
40371;PMS5003;28564;53.346;-6.554;2023-09-08T08:01:29;17;14;
40371;PMS5003;28564;53.346;-6.554;2023-09-08T08:03:56;14;14;
40371;PMS5003;28564;53.346;-6.554;2023-09-08T08:06:23;28;28;
40371;PMS5003;28564;53.346;-6.554;2023-09-08T08:08:51;20;19;
40371;PMS5003;28564;53.346;-6.554;2023-09-08T08:11:17;18;14;
40371;PMS5003;28564;53.346;-6.554;2023-09-08T08:13:45;15;13;
40371;PMS5003;28564;53.346;-6.554;2023-09-08T08:16:13;10;8;
40371;PMS5003;28564;53.346;-6.554;2023-09-08T08:18:40;14;11;
40371;PMS5003;28564;53.346;-6.554;2023-09-08T08:21:08;9;9;
40371;PMS5003;28564;53.346;-6.554;2023-09-08T08:23:35;14;12;
40371;PMS5003;28564;53.346;-6.554;2023-09-08T08:26:02;18;16;
40371;PMS5003;28564;53.346;-6.554;2023-09-08T08:28:30;20;19;
40371;PMS5003;28564;53.346;-6.554;2023-09-08T08:30:57;15;13;
40371;PMS5003;28564;53.346;-6.554;2023-09-08T08:33:24;13;12;
40371;PMS5003;28564;53.346;-6.554;2023-09-08T08:35:52;13;12;
40371;PMS5003;28564;53.346;-6.554;2023-09-08T08:38:20;13;11;
40371;PMS5003;28564;53.346;-6.554;2023-09-08T08:40:47;17;16;
40371;PMS5003;28564;53.346;-6.554;2023-09-08T08:43:14;12;12;
40371;PMS5003;28564;53.346;-6.554;2023-09-08T08:45:41;11;11;
40371;PMS5003;28564;53.346;-6.554;2023-09-08T08:48:10;14;14;
40371;PMS5003;28564;53.346;-6.554;2023-09-08T08:50:40;18;15;
40371;PMS5003;28564;53.346;-6.554;2023-09-08T08:53:09;12;12;
40371;PMS5003;28564;53.346;-6.554;2023-09-08T08:55:38;11;11;
40371;PMS5003;28564;53.346;-6.554;2023-09-08T08:58:07;14;13;
40371;PMS5003;28564;53.346;-6.554;2023-09-08T09:00:35;12;10;
40371;PMS5003;28564;53.346;-6.554;2023-09-08T09:03:04;15;13;
40371;PMS5003;28564;53.346;-6.554;2023-09-08T09:05:32;12;12;
40371;PMS5003;28564;53.346;-6.554;2023-09-08T09:08:01;13;13;
40371;PMS5003;28564;53.346;-6.554;2023-09-08T09:10:30;22;16;
40371;PMS5003;28564;53.346;-6.554;2023-09-08T09:12:58;20;15;
40371;PMS5003;28564;53.346;-6.554;2023-09-08T09:15:29;12;12;
40371;PMS5003;28564;53.346;-6.554;2023-09-08T09:18:05;13;12;
40371;PMS5003;28564;53.346;-6.554;2023-09-08T09:20:33;11;10;
40371;PMS5003;28564;53.346;-6.554;2023-09-08T09:23:01;13;11;
40371;PMS5003;28564;53.346;-6.554;2023-09-08T09:25:28;19;19;
40371;PMS5003;28564;53.346;-6.554;2023-09-08T09:27:57;17;16;
40371;PMS5003;28564;53.346;-6.554;2023-09-08T09:30:25;15;13;
40371;PMS5003;28564;53.346;-6.554;2023-09-08T09:33:01;16;15;
40371;PMS5003;28564;53.346;-6.554;2023-09-08T09:35:45;12;12;
40371;PMS5003;28564;53.346;-6.554;2023-09-08T09:38:13;14;14;
40371;PMS5003;28564;53.346;-6.554;2023-09-08T09:40:41;16;15;
40371;PMS5003;28564;53.346;-6.554;2023-09-08T09:43:09;13;13;
40371;PMS5003;28564;53.346;-6.554;2023-09-08T09:45:38;17;15;
40371;PMS5003;28564;53.346;-6.554;2023-09-08T09:48:06;15;11;
40371;PMS5003;28564;53.346;-6.554;2023-09-08T09:50:36;20;18;
40371;PMS5003;28564;53.346;-6.554;2023-09-08T09:53:08;17;14;
40371;PMS5003;28564;53.346;-6.554;2023-09-08T09:55:36;15;13;
40371;PMS5003;28564;53.346;-6.554;2023-09-08T09:58:05;20;17;
40371;PMS5003;28564;53.346;-6.554;2023-09-08T10:00:33;14;14;
40371;PMS5003;28564;53.346;-6.554;2023-09-08T10:03:01;12;12;
40371;PMS5003;28564;53.346;-6.554;2023-09-08T10:05:29;11;10;
40371;PMS5003;28564;53.346;-6.554;2023-09-08T10:07:57;14;13;
40371;PMS5003;28564;53.346;-6.554;2023-09-08T10:10:25;20;17;
40371;PMS5003;28564;53.346;-6.554;2023-09-08T10:12:55;14;14;
40371;PMS5003;28564;53.346;-6.554;2023-09-08T10:15:27;13;13;
40371;PMS5003;28564;53.346;-6.554;2023-09-08T10:17:56;15;12;
40371;PMS5003;28564;53.346;-6.554;2023-09-08T10:20:24;11;11;
40371;PMS5003;28564;53.346;-6.554;2023-09-08T10:22:54;12;12;
40371;PMS5003;28564;53.346;-6.554;2023-09-08T10:25:33;10;10;
40371;PMS5003;28564;53.346;-6.554;2023-09-08T10:28:04;13;13;
40371;PMS5003;28564;53.346;-6.554;2023-09-08T10:30:31;13;11;
40371;PMS5003;28564;53.346;-6.554;2023-09-08T10:32:59;21;18;
40371;PMS5003;28564;53.346;-6.554;2023-09-08T10:35:28;13;12;
40371;PMS5003;28564;53.346;-6.554;2023-09-08T10:38:15;15;15;
40371;PMS5003;28564;53.346;-6.554;2023-09-08T10:40:48;15;14;
40371;PMS5003;28564;53.346;-6.554;2023-09-08T10:43:17;17;14;
40371;PMS5003;28564;53.346;-6.554;2023-09-08T10:45:45;14;14;
40371;PMS5003;28564;53.346;-6.554;2023-09-08T10:48:12;15;15;
40371;PMS5003;28564;53.346;-6.554;2023-09-08T10:50:40;23;19;
40371;PMS5003;28564;53.346;-6.554;2023-09-08T10:53:09;14;14;
40371;PMS5003;28564;53.346;-6.554;2023-09-08T10:55:40;24;22;
40371;PMS5003;28564;53.346;-6.554;2023-09-08T10:58:10;19;16;
40371;PMS5003;28564;53.346;-6.554;2023-09-08T11:00:44;16;14;
40371;PMS5003;28564;53.346;-6.554;2023-09-08T11:03:12;13;13;
40371;PMS5003;28564;53.346;-6.554;2023-09-08T11:05:41;16;15;
40371;PMS5003;28564;53.346;-6.554;2023-09-08T11:08:08;16;15;
40371;PMS5003;28564;53.346;-6.554;2023-09-08T11:10:35;16;14;
40371;PMS5003;28564;53.346;-6.554;2023-09-08T11:13:04;21;19;
40371;PMS5003;28564;53.346;-6.554;2023-09-08T11:15:32;19;19;
40371;PMS5003;28564;53.346;-6.554;2023-09-08T11:18:04;13;13;
40371;PMS5003;28564;53.346;-6.554;2023-09-08T11:20:33;11;9;
40371;PMS5003;28564;53.346;-6.554;2023-09-08T11:23:01;17;16;
40371;PMS5003;28564;53.346;-6.554;2023-09-08T11:25:29;13;13;
40371;PMS5003;28564;53.346;-6.554;2023-09-08T11:27:57;13;13;
40371;PMS5003;28564;53.346;-6.554;2023-09-08T11:30:25;15;14;
40371;PMS5003;28564;53.346;-6.554;2023-09-08T11:32:53;16;15;
40371;PMS5003;28564;53.346;-6.554;2023-09-08T11:35:21;13;13;
40371;PMS5003;28564;53.346;-6.554;2023-09-08T11:37:48;17;14;
40371;PMS5003;28564;53.346;-6.554;2023-09-08T11:40:16;16;15;
40371;PMS5003;28564;53.346;-6.554;2023-09-08T11:42:43;17;17;
40371;PMS5003;28564;53.346;-6.554;2023-09-08T11:45:16;15;14;
40371;PMS5003;28564;53.346;-6.554;2023-09-08T11:47:44;16;15;
40371;PMS5003;28564;53.346;-6.554;2023-09-08T11:50:11;14;14;
40371;PMS5003;28564;53.346;-6.554;2023-09-08T11:52:40;17;17;
40371;PMS5003;28564;53.346;-6.554;2023-09-08T11:55:08;18;18;
40371;PMS5003;28564;53.346;-6.554;2023-09-08T11:57:36;19;17;
40371;PMS5003;28564;53.346;-6.554;2023-09-08T12:00:05;21;21;
40371;PMS5003;28564;53.346;-6.554;2023-09-08T12:02:34;16;16;
40371;PMS5003;28564;53.346;-6.554;2023-09-08T12:05:01;14;14;
40371;PMS5003;28564;53.346;-6.554;2023-09-08T12:07:28;17;17;
40371;PMS5003;28564;53.346;-6.554;2023-09-08T12:09:56;16;15;
40371;PMS5003;28564;53.346;-6.554;2023-09-08T12:12:23;14;14;
40371;PMS5003;28564;53.346;-6.554;2023-09-08T12:14:52;17;16;
40371;PMS5003;28564;53.346;-6.554;2023-09-08T12:17:20;19;15;
40371;PMS5003;28564;53.346;-6.554;2023-09-08T12:19:47;17;16;
40371;PMS5003;28564;53.346;-6.554;2023-09-08T12:22:15;18;18;
40371;PMS5003;28564;53.346;-6.554;2023-09-08T12:24:47;18;17;
40371;PMS5003;28564;53.346;-6.554;2023-09-08T12:27:16;18;17;
40371;PMS5003;28564;53.346;-6.554;2023-09-08T12:29:53;16;14;
40371;PMS5003;28564;53.346;-6.554;2023-09-08T12:32:21;19;16;
40371;PMS5003;28564;53.346;-6.554;2023-09-08T12:34:49;16;16;
40371;PMS5003;28564;53.346;-6.554;2023-09-08T12:37:21;18;17;
40371;PMS5003;28564;53.346;-6.554;2023-09-08T12:39:49;18;16;
40371;PMS5003;28564;53.346;-6.554;2023-09-08T12:42:17;17;16;
40371;PMS5003;28564;53.346;-6.554;2023-09-08T12:44:45;14;14;
40371;PMS5003;28564;53.346;-6.554;2023-09-08T12:47:12;17;14;
40371;PMS5003;28564;53.346;-6.554;2023-09-08T12:49:40;15;14;
40371;PMS5003;28564;53.346;-6.554;2023-09-08T12:52:07;16;13;
40371;PMS5003;28564;53.346;-6.554;2023-09-08T12:54:34;12;11;
40371;PMS5003;28564;53.346;-6.554;2023-09-08T12:57:02;14;13;
40371;PMS5003;28564;53.346;-6.554;2023-09-08T12:59:29;15;13;
40371;PMS5003;28564;53.346;-6.554;2023-09-08T13:01:57;17;14;
40371;PMS5003;28564;53.346;-6.554;2023-09-08T13:04:24;16;13;
40371;PMS5003;28564;53.346;-6.554;2023-09-08T13:06:52;10;10;
40371;PMS5003;28564;53.346;-6.554;2023-09-08T13:09:19;13;10;
40371;PMS5003;28564;53.346;-6.554;2023-09-08T13:11:46;11;11;
40371;PMS5003;28564;53.346;-6.554;2023-09-08T13:14:14;12;12;
40371;PMS5003;28564;53.346;-6.554;2023-09-08T13:16:41;15;15;
40371;PMS5003;28564;53.346;-6.554;2023-09-08T13:19:08;13;10;
40371;PMS5003;28564;53.346;-6.554;2023-09-08T13:21:36;11;11;
40371;PMS5003;28564;53.346;-6.554;2023-09-08T13:24:06;12;11;
40371;PMS5003;28564;53.346;-6.554;2023-09-08T13:26:34;13;12;
40371;PMS5003;28564;53.346;-6.554;2023-09-08T13:29:01;12;12;
40371;PMS5003;28564;53.346;-6.554;2023-09-08T13:31:29;13;12;
40371;PMS5003;28564;53.346;-6.554;2023-09-08T13:33:56;13;11;
40371;PMS5003;28564;53.346;-6.554;2023-09-08T13:36:24;11;9;
40371;PMS5003;28564;53.346;-6.554;2023-09-08T13:38:51;12;12;
40371;PMS5003;28564;53.346;-6.554;2023-09-08T13:41:18;10;10;
40371;PMS5003;28564;53.346;-6.554;2023-09-08T13:43:46;11;11;
40371;PMS5003;28564;53.346;-6.554;2023-09-08T13:46:13;18;17;
40371;PMS5003;28564;53.346;-6.554;2023-09-08T13:48:40;10;8;
40371;PMS5003;28564;53.346;-6.554;2023-09-08T13:51:08;14;13;
40371;PMS5003;28564;53.346;-6.554;2023-09-08T13:53:35;10;10;
40371;PMS5003;28564;53.346;-6.554;2023-09-08T13:56:03;11;11;
40371;PMS5003;28564;53.346;-6.554;2023-09-08T13:58:30;13;9;
40371;PMS5003;28564;53.346;-6.554;2023-09-08T14:00:57;10;10;
40371;PMS5003;28564;53.346;-6.554;2023-09-08T14:03:25;11;10;
40371;PMS5003;28564;53.346;-6.554;2023-09-08T14:05:52;13;11;
40371;PMS5003;28564;53.346;-6.554;2023-09-08T14:08:20;14;12;
40371;PMS5003;28564;53.346;-6.554;2023-09-08T14:10:47;12;12;
40371;PMS5003;28564;53.346;-6.554;2023-09-08T14:13:14;13;11;
40371;PMS5003;28564;53.346;-6.554;2023-09-08T14:15:42;12;11;
40371;PMS5003;28564;53.346;-6.554;2023-09-08T14:18:09;12;10;
40371;PMS5003;28564;53.346;-6.554;2023-09-08T14:20:36;9;9;
40371;PMS5003;28564;53.346;-6.554;2023-09-08T14:23:04;12;9;
40371;PMS5003;28564;53.346;-6.554;2023-09-08T14:25:31;10;9;
40371;PMS5003;28564;53.346;-6.554;2023-09-08T14:27:59;9;9;
40371;PMS5003;28564;53.346;-6.554;2023-09-08T14:30:26;15;13;
40371;PMS5003;28564;53.346;-6.554;2023-09-08T14:32:55;11;10;
40371;PMS5003;28564;53.346;-6.554;2023-09-08T14:35:24;12;10;
40371;PMS5003;28564;53.346;-6.554;2023-09-08T14:37:51;12;12;
40371;PMS5003;28564;53.346;-6.554;2023-09-08T14:40:19;9;9;
40371;PMS5003;28564;53.346;-6.554;2023-09-08T14:42:49;12;10;
40371;PMS5003;28564;53.346;-6.554;2023-09-08T14:45:16;10;6;
40371;PMS5003;28564;53.346;-6.554;2023-09-08T14:47:48;7;6;
40371;PMS5003;28564;53.346;-6.554;2023-09-08T14:50:20;8;7;
40371;PMS5003;28564;53.346;-6.554;2023-09-08T14:52:48;8;8;
40371;PMS5003;28564;53.346;-6.554;2023-09-08T14:55:15;10;9;
40371;PMS5003;28564;53.346;-6.554;2023-09-08T14:57:42;14;13;
40371;PMS5003;28564;53.346;-6.554;2023-09-08T15:00:11;15;14;
40371;PMS5003;28564;53.346;-6.554;2023-09-08T15:02:39;12;12;
40371;PMS5003;28564;53.346;-6.554;2023-09-08T15:05:06;16;14;
40371;PMS5003;28564;53.346;-6.554;2023-09-08T15:07:34;16;16;
40371;PMS5003;28564;53.346;-6.554;2023-09-08T15:10:01;13;13;
40371;PMS5003;28564;53.346;-6.554;2023-09-08T15:12:28;15;15;
40371;PMS5003;28564;53.346;-6.554;2023-09-08T15:14:56;16;15;
40371;PMS5003;28564;53.346;-6.554;2023-09-08T15:17:23;16;13;
40371;PMS5003;28564;53.346;-6.554;2023-09-08T15:19:50;10;10;
40371;PMS5003;28564;53.346;-6.554;2023-09-08T15:22:18;8;8;
40371;PMS5003;28564;53.346;-6.554;2023-09-08T15:24:45;11;10;
40371;PMS5003;28564;53.346;-6.554;2023-09-08T15:27:12;7;7;
40371;PMS5003;28564;53.346;-6.554;2023-09-08T15:29:40;8;7;
40371;PMS5003;28564;53.346;-6.554;2023-09-08T15:32:07;6;6;
40371;PMS5003;28564;53.346;-6.554;2023-09-08T15:34:34;9;8;
40371;PMS5003;28564;53.346;-6.554;2023-09-08T15:37:02;13;10;
40371;PMS5003;28564;53.346;-6.554;2023-09-08T15:39:29;9;7;
40371;PMS5003;28564;53.346;-6.554;2023-09-08T15:41:56;12;7;
40371;PMS5003;28564;53.346;-6.554;2023-09-08T15:44:23;19;19;
40371;PMS5003;28564;53.346;-6.554;2023-09-08T15:46:50;14;12;
40371;PMS5003;28564;53.346;-6.554;2023-09-08T15:49:18;14;14;
40371;PMS5003;28564;53.346;-6.554;2023-09-08T15:51:45;17;15;
40371;PMS5003;28564;53.346;-6.554;2023-09-08T15:54:13;17;15;
40371;PMS5003;28564;53.346;-6.554;2023-09-08T15:56:40;13;13;
40371;PMS5003;28564;53.346;-6.554;2023-09-08T15:59:07;14;13;
40371;PMS5003;28564;53.346;-6.554;2023-09-08T16:01:34;14;14;
40371;PMS5003;28564;53.346;-6.554;2023-09-08T16:04:02;16;15;
40371;PMS5003;28564;53.346;-6.554;2023-09-08T16:06:29;15;15;
40371;PMS5003;28564;53.346;-6.554;2023-09-08T16:08:57;16;13;